sensor_id;sensor_type;location;lat;lon;timestamp;P1;durP1;ratioP1;P2;durP2;ratioP2
17520;SDS011;8878;-33.370;-70.552;2023-05-07T00:01:01;28.57;;;13.50;;
17520;SDS011;8878;-33.370;-70.552;2023-05-07T00:03:33;26.73;;;12.33;;
17520;SDS011;8878;-33.370;-70.552;2023-05-07T00:06:03;31.97;;;13.07;;
17520;SDS011;8878;-33.370;-70.552;2023-05-07T00:08:33;39.27;;;14.43;;
17520;SDS011;8878;-33.370;-70.552;2023-05-07T00:11:03;36.80;;;12.33;;
17520;SDS011;8878;-33.370;-70.552;2023-05-07T00:13:32;27.40;;;12.73;;
17520;SDS011;8878;-33.370;-70.552;2023-05-07T00:16:05;37.00;;;13.07;;
17520;SDS011;8878;-33.370;-70.552;2023-05-07T00:18:35;32.77;;;12.67;;
17520;SDS011;8878;-33.370;-70.552;2023-05-07T00:21:04;29.97;;;11.70;;
17520;SDS011;8878;-33.370;-70.552;2023-05-07T00:23:34;39.53;;;14.67;;
17520;SDS011;8878;-33.370;-70.552;2023-05-07T00:26:03;34.87;;;13.40;;
17520;SDS011;8878;-33.370;-70.552;2023-05-07T00:28:33;33.27;;;13.23;;
17520;SDS011;8878;-33.370;-70.552;2023-05-07T00:31:02;29.97;;;12.40;;
17520;SDS011;8878;-33.370;-70.552;2023-05-07T00:33:33;36.90;;;15.47;;
17520;SDS011;8878;-33.370;-70.552;2023-05-07T00:36:03;44.47;;;14.30;;
17520;SDS011;8878;-33.370;-70.552;2023-05-07T00:38:33;34.50;;;13.70;;
17520;SDS011;8878;-33.370;-70.552;2023-05-07T00:41:02;29.17;;;11.97;;
17520;SDS011;8878;-33.370;-70.552;2023-05-07T00:43:32;35.40;;;13.53;;
17520;SDS011;8878;-33.370;-70.552;2023-05-07T00:46:02;35.33;;;13.33;;
17520;SDS011;8878;-33.370;-70.552;2023-05-07T00:48:33;28.97;;;13.00;;
17520;SDS011;8878;-33.370;-70.552;2023-05-07T00:51:03;29.17;;;13.70;;
17520;SDS011;8878;-33.370;-70.552;2023-05-07T00:53:33;31.93;;;12.67;;
17520;SDS011;8878;-33.370;-70.552;2023-05-07T00:56:03;45.87;;;13.83;;
17520;SDS011;8878;-33.370;-70.552;2023-05-07T00:58:33;42.73;;;13.17;;
17520;SDS011;8878;-33.370;-70.552;2023-05-07T01:01:02;35.80;;;14.43;;
17520;SDS011;8878;-33.370;-70.552;2023-05-07T01:03:34;37.33;;;14.37;;
17520;SDS011;8878;-33.370;-70.552;2023-05-07T01:06:03;45.60;;;14.53;;
17520;SDS011;8878;-33.370;-70.552;2023-05-07T01:08:35;39.10;;;13.40;;
17520;SDS011;8878;-33.370;-70.552;2023-05-07T01:11:05;39.17;;;14.80;;
17520;SDS011;8878;-33.370;-70.552;2023-05-07T01:13:36;34.90;;;13.17;;
17520;SDS011;8878;-33.370;-70.552;2023-05-07T01:16:06;39.90;;;15.03;;
17520;SDS011;8878;-33.370;-70.552;2023-05-07T01:18:39;33.43;;;13.37;;
17520;SDS011;8878;-33.370;-70.552;2023-05-07T01:21:09;36.40;;;13.03;;
17520;SDS011;8878;-33.370;-70.552;2023-05-07T01:23:44;33.10;;;14.17;;
17520;SDS011;8878;-33.370;-70.552;2023-05-07T01:26:13;29.33;;;12.47;;
17520;SDS011;8878;-33.370;-70.552;2023-05-07T01:28:45;31.20;;;12.40;;
17520;SDS011;8878;-33.370;-70.552;2023-05-07T01:31:14;37.50;;;14.63;;
17520;SDS011;8878;-33.370;-70.552;2023-05-07T01:33:45;45.90;;;15.83;;
17520;SDS011;8878;-33.370;-70.552;2023-05-07T01:36:17;40.57;;;15.20;;
17520;SDS011;8878;-33.370;-70.552;2023-05-07T01:38:51;33.00;;;16.50;;
17520;SDS011;8878;-33.370;-70.552;2023-05-07T01:41:24;34.30;;;14.77;;
17520;SDS011;8878;-33.370;-70.552;2023-05-07T01:43:54;33.70;;;14.07;;
17520;SDS011;8878;-33.370;-70.552;2023-05-07T01:46:23;31.40;;;13.70;;
17520;SDS011;8878;-33.370;-70.552;2023-05-07T01:48:54;40.37;;;14.50;;
17520;SDS011;8878;-33.370;-70.552;2023-05-07T01:51:23;34.33;;;16.30;;
17520;SDS011;8878;-33.370;-70.552;2023-05-07T01:53:56;37.63;;;14.20;;
17520;SDS011;8878;-33.370;-70.552;2023-05-07T01:56:26;36.93;;;15.43;;
17520;SDS011;8878;-33.370;-70.552;2023-05-07T01:58:55;36.13;;;14.20;;
17520;SDS011;8878;-33.370;-70.552;2023-05-07T02:01:25;39.67;;;14.83;;
17520;SDS011;8878;-33.370;-70.552;2023-05-07T02:03:55;34.03;;;13.43;;
17520;SDS011;8878;-33.370;-70.552;2023-05-07T02:06:24;37.33;;;13.77;;
17520;SDS011;8878;-33.370;-70.552;2023-05-07T02:08:55;29.30;;;13.77;;
17520;SDS011;8878;-33.370;-70.552;2023-05-07T02:11:25;30.70;;;14.27;;
17520;SDS011;8878;-33.370;-70.552;2023-05-07T02:13:54;35.70;;;13.17;;
17520;SDS011;8878;-33.370;-70.552;2023-05-07T02:16:24;34.50;;;13.57;;
17520;SDS011;8878;-33.370;-70.552;2023-05-07T02:18:53;33.73;;;14.80;;
17520;SDS011;8878;-33.370;-70.552;2023-05-07T02:21:24;36.90;;;14.13;;
17520;SDS011;8878;-33.370;-70.552;2023-05-07T02:23:55;35.33;;;13.50;;
17520;SDS011;8878;-33.370;-70.552;2023-05-07T02:26:25;39.40;;;14.30;;
17520;SDS011;8878;-33.370;-70.552;2023-05-07T02:28:54;33.23;;;12.90;;
17520;SDS011;8878;-33.370;-70.552;2023-05-07T02:31:24;38.50;;;13.87;;
17520;SDS011;8878;-33.370;-70.552;2023-05-07T02:33:53;32.97;;;12.53;;
17520;SDS011;8878;-33.370;-70.552;2023-05-07T02:36:23;40.03;;;14.07;;
17520;SDS011;8878;-33.370;-70.552;2023-05-07T02:38:55;32.80;;;12.70;;
17520;SDS011;8878;-33.370;-70.552;2023-05-07T02:41:24;38.20;;;14.63;;
17520;SDS011;8878;-33.370;-70.552;2023-05-07T02:43:54;44.77;;;14.73;;
17520;SDS011;8878;-33.370;-70.552;2023-05-07T02:46:23;36.13;;;14.37;;
17520;SDS011;8878;-33.370;-70.552;2023-05-07T02:48:53;38.50;;;13.60;;
17520;SDS011;8878;-33.370;-70.552;2023-05-07T02:51:22;43.13;;;14.03;;
17520;SDS011;8878;-33.370;-70.552;2023-05-07T02:53:52;30.77;;;14.20;;
17520;SDS011;8878;-33.370;-70.552;2023-05-07T02:56:25;31.43;;;14.43;;
17520;SDS011;8878;-33.370;-70.552;2023-05-07T02:58:54;30.23;;;13.50;;
17520;SDS011;8878;-33.370;-70.552;2023-05-07T03:01:24;30.87;;;12.30;;
17520;SDS011;8878;-33.370;-70.552;2023-05-07T03:03:54;38.93;;;14.90;;
17520;SDS011;8878;-33.370;-70.552;2023-05-07T03:06:23;33.37;;;13.50;;
17520;SDS011;8878;-33.370;-70.552;2023-05-07T03:08:54;32.67;;;12.10;;
17520;SDS011;8878;-33.370;-70.552;2023-05-07T03:11:26;30.27;;;12.67;;
17520;SDS011;8878;-33.370;-70.552;2023-05-07T03:13:55;27.80;;;13.47;;
17520;SDS011;8878;-33.370;-70.552;2023-05-07T03:16:25;40.43;;;14.10;;
17520;SDS011;8878;-33.370;-70.552;2023-05-07T03:18:55;31.17;;;14.07;;
17520;SDS011;8878;-33.370;-70.552;2023-05-07T03:21:25;29.63;;;11.90;;
17520;SDS011;8878;-33.370;-70.552;2023-05-07T03:23:54;30.43;;;14.10;;
17520;SDS011;8878;-33.370;-70.552;2023-05-07T03:26:26;32.03;;;13.17;;
17520;SDS011;8878;-33.370;-70.552;2023-05-07T03:28:55;32.53;;;13.20;;
17520;SDS011;8878;-33.370;-70.552;2023-05-07T03:31:25;30.37;;;12.93;;
17520;SDS011;8878;-33.370;-70.552;2023-05-07T03:33:55;40.97;;;13.63;;
17520;SDS011;8878;-33.370;-70.552;2023-05-07T03:36:25;32.43;;;11.73;;
17520;SDS011;8878;-33.370;-70.552;2023-05-07T03:38:55;24.67;;;11.90;;
17520;SDS011;8878;-33.370;-70.552;2023-05-07T03:41:26;33.33;;;13.13;;
17520;SDS011;8878;-33.370;-70.552;2023-05-07T03:43:56;23.10;;;12.77;;
17520;SDS011;8878;-33.370;-70.552;2023-05-07T03:46:25;30.27;;;12.77;;
17520;SDS011;8878;-33.370;-70.552;2023-05-07T03:48:54;34.60;;;13.53;;
17520;SDS011;8878;-33.370;-70.552;2023-05-07T03:51:24;19.10;;;11.10;;
17520;SDS011;8878;-33.370;-70.552;2023-05-07T03:53:54;34.80;;;13.80;;
17520;SDS011;8878;-33.370;-70.552;2023-05-07T03:56:24;30.83;;;13.30;;
17520;SDS011;8878;-33.370;-70.552;2023-05-07T03:58:55;30.77;;;13.60;;
17520;SDS011;8878;-33.370;-70.552;2023-05-07T04:01:25;34.60;;;14.03;;
17520;SDS011;8878;-33.370;-70.552;2023-05-07T04:03:54;30.80;;;12.73;;
17520;SDS011;8878;-33.370;-70.552;2023-05-07T04:06:25;32.93;;;11.57;;
17520;SDS011;8878;-33.370;-70.552;2023-05-07T04:08:55;32.57;;;11.90;;
17520;SDS011;8878;-33.370;-70.552;2023-05-07T04:11:28;30.33;;;14.30;;
17520;SDS011;8878;-33.370;-70.552;2023-05-07T04:13:57;42.00;;;16.47;;
17520;SDS011;8878;-33.370;-70.552;2023-05-07T04:16:27;27.77;;;12.97;;
17520;SDS011;8878;-33.370;-70.552;2023-05-07T04:18:56;28.00;;;11.97;;
17520;SDS011;8878;-33.370;-70.552;2023-05-07T04:21:26;26.77;;;12.00;;
17520;SDS011;8878;-33.370;-70.552;2023-05-07T04:23:55;35.90;;;11.00;;
17520;SDS011;8878;-33.370;-70.552;2023-05-07T04:26:25;30.87;;;12.23;;
17520;SDS011;8878;-33.370;-70.552;2023-05-07T04:28:56;29.13;;;11.47;;
17520;SDS011;8878;-33.370;-70.552;2023-05-07T04:31:28;19.80;;;10.00;;
17520;SDS011;8878;-33.370;-70.552;2023-05-07T04:33:57;30.53;;;9.87;;
17520;SDS011;8878;-33.370;-70.552;2023-05-07T04:36:27;33.43;;;11.50;;
17520;SDS011;8878;-33.370;-70.552;2023-05-07T04:38:59;23.50;;;9.83;;
17520;SDS011;8878;-33.370;-70.552;2023-05-07T04:41:30;22.87;;;11.60;;
17520;SDS011;8878;-33.370;-70.552;2023-05-07T04:43:59;29.17;;;8.93;;
17520;SDS011;8878;-33.370;-70.552;2023-05-07T04:46:29;33.20;;;8.60;;
17520;SDS011;8878;-33.370;-70.552;2023-05-07T04:48:59;19.57;;;8.67;;
17520;SDS011;8878;-33.370;-70.552;2023-05-07T04:51:29;23.17;;;9.60;;
17520;SDS011;8878;-33.370;-70.552;2023-05-07T04:53:58;20.97;;;8.77;;
17520;SDS011;8878;-33.370;-70.552;2023-05-07T04:56:30;35.53;;;12.83;;
17520;SDS011;8878;-33.370;-70.552;2023-05-07T04:58:59;31.23;;;9.20;;
17520;SDS011;8878;-33.370;-70.552;2023-05-07T05:01:29;37.43;;;14.57;;
17520;SDS011;8878;-33.370;-70.552;2023-05-07T05:03:58;33.83;;;13.63;;
17520;SDS011;8878;-33.370;-70.552;2023-05-07T05:06:28;30.83;;;10.77;;
17520;SDS011;8878;-33.370;-70.552;2023-05-07T05:08:59;27.37;;;10.90;;
17520;SDS011;8878;-33.370;-70.552;2023-05-07T05:11:31;23.10;;;9.80;;
17520;SDS011;8878;-33.370;-70.552;2023-05-07T05:14:00;21.43;;;9.00;;
17520;SDS011;8878;-33.370;-70.552;2023-05-07T05:16:30;31.90;;;11.43;;
17520;SDS011;8878;-33.370;-70.552;2023-05-07T05:19:00;25.60;;;12.33;;
17520;SDS011;8878;-33.370;-70.552;2023-05-07T05:21:30;41.63;;;16.83;;
17520;SDS011;8878;-33.370;-70.552;2023-05-07T05:24:00;32.50;;;13.03;;
17520;SDS011;8878;-33.370;-70.552;2023-05-07T05:26:31;40.23;;;13.70;;
17520;SDS011;8878;-33.370;-70.552;2023-05-07T05:29:01;29.30;;;13.13;;
17520;SDS011;8878;-33.370;-70.552;2023-05-07T05:31:31;27.13;;;12.43;;
17520;SDS011;8878;-33.370;-70.552;2023-05-07T05:34:00;37.37;;;12.83;;
17520;SDS011;8878;-33.370;-70.552;2023-05-07T05:36:30;39.80;;;11.83;;
17520;SDS011;8878;-33.370;-70.552;2023-05-07T05:38:59;31.90;;;12.60;;
17520;SDS011;8878;-33.370;-70.552;2023-05-07T05:41:29;27.27;;;11.43;;
17520;SDS011;8878;-33.370;-70.552;2023-05-07T05:44:00;40.30;;;13.53;;
17520;SDS011;8878;-33.370;-70.552;2023-05-07T05:46:30;36.87;;;12.83;;
17520;SDS011;8878;-33.370;-70.552;2023-05-07T05:48:59;29.60;;;11.70;;
17520;SDS011;8878;-33.370;-70.552;2023-05-07T05:51:28;33.87;;;13.67;;
17520;SDS011;8878;-33.370;-70.552;2023-05-07T05:53:58;29.93;;;11.23;;
17520;SDS011;8878;-33.370;-70.552;2023-05-07T05:56:27;32.60;;;11.83;;
17520;SDS011;8878;-33.370;-70.552;2023-05-07T05:58:59;31.00;;;12.17;;
17520;SDS011;8878;-33.370;-70.552;2023-05-07T06:01:28;46.17;;;14.20;;
17520;SDS011;8878;-33.370;-70.552;2023-05-07T06:03:58;33.60;;;13.27;;
17520;SDS011;8878;-33.370;-70.552;2023-05-07T06:06:28;27.77;;;14.87;;
17520;SDS011;8878;-33.370;-70.552;2023-05-07T06:08:58;37.60;;;12.90;;
17520;SDS011;8878;-33.370;-70.552;2023-05-07T06:11:28;40.27;;;15.40;;
17520;SDS011;8878;-33.370;-70.552;2023-05-07T06:13:59;32.50;;;10.40;;
17520;SDS011;8878;-33.370;-70.552;2023-05-07T06:16:29;41.67;;;12.53;;
17520;SDS011;8878;-33.370;-70.552;2023-05-07T06:18:58;32.13;;;11.83;;
17520;SDS011;8878;-33.370;-70.552;2023-05-07T06:21:28;30.07;;;12.53;;
17520;SDS011;8878;-33.370;-70.552;2023-05-07T06:23:57;36.20;;;11.03;;
17520;SDS011;8878;-33.370;-70.552;2023-05-07T06:26:27;29.87;;;11.00;;
17520;SDS011;8878;-33.370;-70.552;2023-05-07T06:28:57;23.40;;;10.87;;
17520;SDS011;8878;-33.370;-70.552;2023-05-07T06:31:29;27.70;;;10.93;;
17520;SDS011;8878;-33.370;-70.552;2023-05-07T06:33:59;25.27;;;9.30;;
17520;SDS011;8878;-33.370;-70.552;2023-05-07T06:36:29;29.97;;;9.27;;
17520;SDS011;8878;-33.370;-70.552;2023-05-07T06:38:58;27.27;;;10.83;;
17520;SDS011;8878;-33.370;-70.552;2023-05-07T06:41:28;22.97;;;11.63;;
17520;SDS011;8878;-33.370;-70.552;2023-05-07T06:43:57;31.10;;;10.27;;
17520;SDS011;8878;-33.370;-70.552;2023-05-07T06:46:28;28.80;;;9.30;;
17520;SDS011;8878;-33.370;-70.552;2023-05-07T06:48:58;29.60;;;10.60;;
17520;SDS011;8878;-33.370;-70.552;2023-05-07T06:51:27;24.90;;;10.00;;
17520;SDS011;8878;-33.370;-70.552;2023-05-07T06:53:57;24.80;;;10.00;;
17520;SDS011;8878;-33.370;-70.552;2023-05-07T06:56:26;23.77;;;9.83;;
17520;SDS011;8878;-33.370;-70.552;2023-05-07T06:58:56;22.93;;;9.07;;
17520;SDS011;8878;-33.370;-70.552;2023-05-07T07:01:28;17.30;;;9.90;;
17520;SDS011;8878;-33.370;-70.552;2023-05-07T07:03:59;22.30;;;9.50;;
17520;SDS011;8878;-33.370;-70.552;2023-05-07T07:06:28;28.00;;;9.87;;
17520;SDS011;8878;-33.370;-70.552;2023-05-07T07:08:59;26.17;;;9.53;;
17520;SDS011;8878;-33.370;-70.552;2023-05-07T07:11:29;23.63;;;8.80;;
17520;SDS011;8878;-33.370;-70.552;2023-05-07T07:13:58;20.73;;;8.00;;
17520;SDS011;8878;-33.370;-70.552;2023-05-07T07:16:30;16.30;;;5.83;;
17520;SDS011;8878;-33.370;-70.552;2023-05-07T07:19:00;24.70;;;8.63;;
17520;SDS011;8878;-33.370;-70.552;2023-05-07T07:21:29;26.70;;;8.33;;
17520;SDS011;8878;-33.370;-70.552;2023-05-07T07:24:00;19.00;;;6.13;;
17520;SDS011;8878;-33.370;-70.552;2023-05-07T07:26:30;19.03;;;6.60;;
17520;SDS011;8878;-33.370;-70.552;2023-05-07T07:29:00;14.87;;;6.90;;
17520;SDS011;8878;-33.370;-70.552;2023-05-07T07:31:31;12.80;;;7.17;;
17520;SDS011;8878;-33.370;-70.552;2023-05-07T07:34:00;18.37;;;7.40;;
17520;SDS011;8878;-33.370;-70.552;2023-05-07T07:36:31;18.53;;;6.63;;
17520;SDS011;8878;-33.370;-70.552;2023-05-07T07:39:00;14.77;;;7.07;;
17520;SDS011;8878;-33.370;-70.552;2023-05-07T07:41:30;13.07;;;5.60;;
17520;SDS011;8878;-33.370;-70.552;2023-05-07T07:44:00;9.50;;;6.00;;
17520;SDS011;8878;-33.370;-70.552;2023-05-07T07:46:31;12.77;;;6.20;;
17520;SDS011;8878;-33.370;-70.552;2023-05-07T07:49:03;17.80;;;6.10;;
17520;SDS011;8878;-33.370;-70.552;2023-05-07T07:51:32;15.43;;;7.00;;
17520;SDS011;8878;-33.370;-70.552;2023-05-07T07:54:02;15.20;;;7.10;;
17520;SDS011;8878;-33.370;-70.552;2023-05-07T07:56:32;12.60;;;5.83;;
17520;SDS011;8878;-33.370;-70.552;2023-05-07T07:59:01;19.77;;;6.80;;
17520;SDS011;8878;-33.370;-70.552;2023-05-07T08:01:33;25.53;;;5.63;;
17520;SDS011;8878;-33.370;-70.552;2023-05-07T08:04:02;23.23;;;6.47;;
17520;SDS011;8878;-33.370;-70.552;2023-05-07T08:06:32;14.97;;;7.00;;
17520;SDS011;8878;-33.370;-70.552;2023-05-07T08:09:01;15.50;;;7.07;;
17520;SDS011;8878;-33.370;-70.552;2023-05-07T08:11:31;13.30;;;6.03;;
17520;SDS011;8878;-33.370;-70.552;2023-05-07T08:14:00;25.20;;;7.80;;
17520;SDS011;8878;-33.370;-70.552;2023-05-07T08:16:30;20.97;;;7.43;;
17520;SDS011;8878;-33.370;-70.552;2023-05-07T08:19:01;13.93;;;6.00;;
17520;SDS011;8878;-33.370;-70.552;2023-05-07T08:21:31;16.90;;;6.00;;
17520;SDS011;8878;-33.370;-70.552;2023-05-07T08:24:03;16.70;;;5.53;;
17520;SDS011;8878;-33.370;-70.552;2023-05-07T08:26:32;10.47;;;3.70;;
17520;SDS011;8878;-33.370;-70.552;2023-05-07T08:29:04;9.47;;;5.33;;
17520;SDS011;8878;-33.370;-70.552;2023-05-07T08:31:34;15.93;;;5.13;;
17520;SDS011;8878;-33.370;-70.552;2023-05-07T08:34:06;17.23;;;4.87;;
17520;SDS011;8878;-33.370;-70.552;2023-05-07T08:36:36;20.43;;;6.33;;
17520;SDS011;8878;-33.370;-70.552;2023-05-07T08:39:07;18.40;;;5.77;;
17520;SDS011;8878;-33.370;-70.552;2023-05-07T08:41:37;12.40;;;5.60;;
17520;SDS011;8878;-33.370;-70.552;2023-05-07T08:44:06;10.97;;;4.27;;
17520;SDS011;8878;-33.370;-70.552;2023-05-07T08:46:41;8.53;;;4.33;;
17520;SDS011;8878;-33.370;-70.552;2023-05-07T08:49:15;17.00;;;5.53;;
17520;SDS011;8878;-33.370;-70.552;2023-05-07T08:51:46;10.57;;;3.60;;
17520;SDS011;8878;-33.370;-70.552;2023-05-07T08:54:16;12.47;;;4.73;;
17520;SDS011;8878;-33.370;-70.552;2023-05-07T08:56:46;14.00;;;5.60;;
17520;SDS011;8878;-33.370;-70.552;2023-05-07T08:59:15;14.93;;;3.20;;
17520;SDS011;8878;-33.370;-70.552;2023-05-07T09:01:45;12.70;;;5.47;;
17520;SDS011;8878;-33.370;-70.552;2023-05-07T09:04:17;16.60;;;4.33;;
17520;SDS011;8878;-33.370;-70.552;2023-05-07T09:06:47;13.57;;;4.50;;
17520;SDS011;8878;-33.370;-70.552;2023-05-07T09:09:17;9.13;;;4.70;;
17520;SDS011;8878;-33.370;-70.552;2023-05-07T09:11:47;8.73;;;3.27;;
17520;SDS011;8878;-33.370;-70.552;2023-05-07T09:14:16;6.30;;;2.83;;
17520;SDS011;8878;-33.370;-70.552;2023-05-07T09:16:49;10.83;;;4.03;;
17520;SDS011;8878;-33.370;-70.552;2023-05-07T09:19:24;13.13;;;3.57;;
17520;SDS011;8878;-33.370;-70.552;2023-05-07T09:22:00;13.50;;;4.23;;
17520;SDS011;8878;-33.370;-70.552;2023-05-07T09:24:30;8.47;;;3.83;;
17520;SDS011;8878;-33.370;-70.552;2023-05-07T09:27:04;12.23;;;4.50;;
17520;SDS011;8878;-33.370;-70.552;2023-05-07T09:29:35;14.73;;;4.30;;
17520;SDS011;8878;-33.370;-70.552;2023-05-07T09:32:05;8.73;;;4.33;;
17520;SDS011;8878;-33.370;-70.552;2023-05-07T09:34:37;9.60;;;4.13;;
17520;SDS011;8878;-33.370;-70.552;2023-05-07T09:37:06;11.40;;;4.73;;
17520;SDS011;8878;-33.370;-70.552;2023-05-07T09:39:39;9.70;;;3.20;;
17520;SDS011;8878;-33.370;-70.552;2023-05-07T09:42:10;11.00;;;3.87;;
17520;SDS011;8878;-33.370;-70.552;2023-05-07T09:44:41;9.33;;;3.30;;
17520;SDS011;8878;-33.370;-70.552;2023-05-07T09:47:11;4.67;;;2.80;;
17520;SDS011;8878;-33.370;-70.552;2023-05-07T09:49:48;6.50;;;2.93;;
17520;SDS011;8878;-33.370;-70.552;2023-05-07T09:52:18;10.67;;;3.30;;
17520;SDS011;8878;-33.370;-70.552;2023-05-07T09:54:48;10.40;;;3.60;;
17520;SDS011;8878;-33.370;-70.552;2023-05-07T09:57:20;5.50;;;3.53;;
17520;SDS011;8878;-33.370;-70.552;2023-05-07T09:59:52;6.10;;;3.83;;
17520;SDS011;8878;-33.370;-70.552;2023-05-07T10:02:25;9.93;;;3.03;;
17520;SDS011;8878;-33.370;-70.552;2023-05-07T10:05:00;8.43;;;3.03;;
17520;SDS011;8878;-33.370;-70.552;2023-05-07T10:07:31;7.43;;;3.00;;
17520;SDS011;8878;-33.370;-70.552;2023-05-07T10:10:01;6.03;;;2.63;;
17520;SDS011;8878;-33.370;-70.552;2023-05-07T10:12:32;5.00;;;2.13;;
17520;SDS011;8878;-33.370;-70.552;2023-05-07T10:15:05;11.03;;;3.07;;
17520;SDS011;8878;-33.370;-70.552;2023-05-07T10:17:36;5.77;;;2.53;;
17520;SDS011;8878;-33.370;-70.552;2023-05-07T10:20:08;5.33;;;2.43;;
17520;SDS011;8878;-33.370;-70.552;2023-05-07T10:22:39;7.50;;;2.53;;
17520;SDS011;8878;-33.370;-70.552;2023-05-07T10:25:14;12.10;;;3.13;;
17520;SDS011;8878;-33.370;-70.552;2023-05-07T10:27:46;8.20;;;4.10;;
17520;SDS011;8878;-33.370;-70.552;2023-05-07T10:30:20;9.10;;;3.57;;
17520;SDS011;8878;-33.370;-70.552;2023-05-07T10:32:55;6.37;;;3.23;;
17520;SDS011;8878;-33.370;-70.552;2023-05-07T10:35:37;6.67;;;2.27;;
17520;SDS011;8878;-33.370;-70.552;2023-05-07T10:38:08;3.40;;;2.07;;
17520;SDS011;8878;-33.370;-70.552;2023-05-07T10:40:40;8.90;;;3.90;;
17520;SDS011;8878;-33.370;-70.552;2023-05-07T10:43:09;4.83;;;2.20;;
17520;SDS011;8878;-33.370;-70.552;2023-05-07T10:45:39;7.83;;;3.20;;
17520;SDS011;8878;-33.370;-70.552;2023-05-07T10:48:09;12.33;;;4.60;;
17520;SDS011;8878;-33.370;-70.552;2023-05-07T10:50:42;15.93;;;7.33;;
17520;SDS011;8878;-33.370;-70.552;2023-05-07T10:53:20;26.83;;;8.73;;
17520;SDS011;8878;-33.370;-70.552;2023-05-07T11:02:02;17.23;;;6.70;;
17520;SDS011;8878;-33.370;-70.552;2023-05-07T11:04:33;8.97;;;4.70;;
17520;SDS011;8878;-33.370;-70.552;2023-05-07T11:10:02;21.60;;;8.07;;
17520;SDS011;8878;-33.370;-70.552;2023-05-07T11:12:50;21.20;;;10.07;;
17520;SDS011;8878;-33.370;-70.552;2023-05-07T11:18:13;13.33;;;7.03;;
17520;SDS011;8878;-33.370;-70.552;2023-05-07T11:20:47;20.97;;;8.97;;
17520;SDS011;8878;-33.370;-70.552;2023-05-07T11:26:28;26.47;;;8.60;;
17520;SDS011;8878;-33.370;-70.552;2023-05-07T11:28:59;29.07;;;10.90;;
17520;SDS011;8878;-33.370;-70.552;2023-05-07T11:31:30;33.17;;;11.33;;
17520;SDS011;8878;-33.370;-70.552;2023-05-07T11:34:00;23.00;;;11.70;;
17520;SDS011;8878;-33.370;-70.552;2023-05-07T11:36:30;28.00;;;10.13;;
17520;SDS011;8878;-33.370;-70.552;2023-05-07T11:39:01;35.67;;;11.23;;
17520;SDS011;8878;-33.370;-70.552;2023-05-07T11:41:36;14.53;;;7.70;;
17520;SDS011;8878;-33.370;-70.552;2023-05-07T11:44:05;12.00;;;5.40;;
17520;SDS011;8878;-33.370;-70.552;2023-05-07T11:46:35;19.70;;;8.37;;
17520;SDS011;8878;-33.370;-70.552;2023-05-07T11:49:04;14.47;;;5.43;;
17520;SDS011;8878;-33.370;-70.552;2023-05-07T11:51:35;20.77;;;7.33;;
17520;SDS011;8878;-33.370;-70.552;2023-05-07T11:54:05;13.67;;;5.87;;
17520;SDS011;8878;-33.370;-70.552;2023-05-07T11:56:39;18.50;;;6.73;;
17520;SDS011;8878;-33.370;-70.552;2023-05-07T11:59:10;11.63;;;4.63;;
17520;SDS011;8878;-33.370;-70.552;2023-05-07T12:01:39;9.03;;;3.60;;
17520;SDS011;8878;-33.370;-70.552;2023-05-07T12:04:13;9.60;;;2.83;;
17520;SDS011;8878;-33.370;-70.552;2023-05-07T12:06:47;4.23;;;2.40;;
17520;SDS011;8878;-33.370;-70.552;2023-05-07T12:09:16;11.03;;;4.20;;
17520;SDS011;8878;-33.370;-70.552;2023-05-07T12:11:48;7.97;;;3.83;;
17520;SDS011;8878;-33.370;-70.552;2023-05-07T12:14:19;4.50;;;2.07;;
17520;SDS011;8878;-33.370;-70.552;2023-05-07T12:16:49;5.40;;;2.70;;
17520;SDS011;8878;-33.370;-70.552;2023-05-07T12:19:20;4.70;;;2.47;;
17520;SDS011;8878;-33.370;-70.552;2023-05-07T12:21:51;6.97;;;3.50;;
17520;SDS011;8878;-33.370;-70.552;2023-05-07T12:24:20;4.90;;;2.80;;
17520;SDS011;8878;-33.370;-70.552;2023-05-07T12:26:51;12.20;;;3.83;;
17520;SDS011;8878;-33.370;-70.552;2023-05-07T12:29:24;6.60;;;2.93;;
17520;SDS011;8878;-33.370;-70.552;2023-05-07T12:31:54;10.47;;;3.50;;
17520;SDS011;8878;-33.370;-70.552;2023-05-07T12:34:23;5.27;;;1.80;;
17520;SDS011;8878;-33.370;-70.552;2023-05-07T12:36:53;4.83;;;2.00;;
17520;SDS011;8878;-33.370;-70.552;2023-05-07T12:39:22;6.87;;;2.83;;
17520;SDS011;8878;-33.370;-70.552;2023-05-07T12:41:54;7.93;;;3.97;;
17520;SDS011;8878;-33.370;-70.552;2023-05-07T12:44:24;4.57;;;1.70;;
17520;SDS011;8878;-33.370;-70.552;2023-05-07T12:46:57;3.33;;;2.30;;
17520;SDS011;8878;-33.370;-70.552;2023-05-07T12:49:29;9.23;;;2.10;;
17520;SDS011;8878;-33.370;-70.552;2023-05-07T12:51:58;2.53;;;1.73;;
17520;SDS011;8878;-33.370;-70.552;2023-05-07T12:54:28;4.23;;;2.33;;
17520;SDS011;8878;-33.370;-70.552;2023-05-07T12:57:03;6.20;;;2.67;;
17520;SDS011;8878;-33.370;-70.552;2023-05-07T12:59:34;5.63;;;1.97;;
17520;SDS011;8878;-33.370;-70.552;2023-05-07T13:02:05;6.43;;;2.70;;
17520;SDS011;8878;-33.370;-70.552;2023-05-07T13:04:34;7.13;;;2.43;;
17520;SDS011;8878;-33.370;-70.552;2023-05-07T13:07:04;12.13;;;3.33;;
17520;SDS011;8878;-33.370;-70.552;2023-05-07T13:09:33;11.07;;;4.40;;
17520;SDS011;8878;-33.370;-70.552;2023-05-07T13:12:05;5.37;;;2.23;;
17520;SDS011;8878;-33.370;-70.552;2023-05-07T13:14:34;8.57;;;2.90;;
17520;SDS011;8878;-33.370;-70.552;2023-05-07T13:17:04;10.57;;;5.07;;
17520;SDS011;8878;-33.370;-70.552;2023-05-07T13:19:34;11.03;;;3.23;;
17520;SDS011;8878;-33.370;-70.552;2023-05-07T13:22:04;5.37;;;3.03;;
17520;SDS011;8878;-33.370;-70.552;2023-05-07T13:24:36;13.90;;;3.67;;
17520;SDS011;8878;-33.370;-70.552;2023-05-07T13:27:09;9.33;;;3.47;;
17520;SDS011;8878;-33.370;-70.552;2023-05-07T13:29:38;27.30;;;5.20;;
17520;SDS011;8878;-33.370;-70.552;2023-05-07T13:32:08;15.50;;;5.57;;
17520;SDS011;8878;-33.370;-70.552;2023-05-07T13:34:37;15.23;;;5.10;;
17520;SDS011;8878;-33.370;-70.552;2023-05-07T13:37:07;10.70;;;5.23;;
17520;SDS011;8878;-33.370;-70.552;2023-05-07T13:39:36;15.20;;;5.57;;
17520;SDS011;8878;-33.370;-70.552;2023-05-07T13:42:06;18.43;;;5.70;;
17520;SDS011;8878;-33.370;-70.552;2023-05-07T13:44:38;12.37;;;6.13;;
17520;SDS011;8878;-33.370;-70.552;2023-05-07T13:47:07;13.93;;;5.73;;
17520;SDS011;8878;-33.370;-70.552;2023-05-07T13:49:37;18.27;;;6.37;;
17520;SDS011;8878;-33.370;-70.552;2023-05-07T13:52:06;17.13;;;4.73;;
17520;SDS011;8878;-33.370;-70.552;2023-05-07T13:54:36;13.07;;;5.00;;
17520;SDS011;8878;-33.370;-70.552;2023-05-07T13:57:06;23.80;;;8.70;;
17520;SDS011;8878;-33.370;-70.552;2023-05-07T13:59:37;23.40;;;6.80;;
17520;SDS011;8878;-33.370;-70.552;2023-05-07T14:02:07;14.67;;;6.87;;
17520;SDS011;8878;-33.370;-70.552;2023-05-07T14:04:37;23.17;;;6.70;;
17520;SDS011;8878;-33.370;-70.552;2023-05-07T14:07:06;25.57;;;6.57;;
17520;SDS011;8878;-33.370;-70.552;2023-05-07T14:09:36;15.80;;;6.30;;
17520;SDS011;8878;-33.370;-70.552;2023-05-07T14:12:05;18.40;;;6.57;;
17520;SDS011;8878;-33.370;-70.552;2023-05-07T14:14:37;19.37;;;6.83;;
17520;SDS011;8878;-33.370;-70.552;2023-05-07T14:17:07;21.30;;;6.33;;
17520;SDS011;8878;-33.370;-70.552;2023-05-07T14:19:36;10.43;;;4.80;;
17520;SDS011;8878;-33.370;-70.552;2023-05-07T14:22:05;9.53;;;3.60;;
17520;SDS011;8878;-33.370;-70.552;2023-05-07T14:24:35;13.03;;;4.47;;
17520;SDS011;8878;-33.370;-70.552;2023-05-07T14:27:05;14.13;;;5.27;;
17520;SDS011;8878;-33.370;-70.552;2023-05-07T14:29:35;15.10;;;5.47;;
17520;SDS011;8878;-33.370;-70.552;2023-05-07T14:32:06;12.93;;;4.00;;
17520;SDS011;8878;-33.370;-70.552;2023-05-07T14:34:35;14.60;;;4.37;;
17520;SDS011;8878;-33.370;-70.552;2023-05-07T14:37:05;17.53;;;5.33;;
17520;SDS011;8878;-33.370;-70.552;2023-05-07T14:39:34;17.13;;;6.53;;